<?xml version="1.0" encoding="UTF-8" standalone="no" ?>
<gpx xmlns="http://www.topografix.com/GPX/1/1" xmlns:xsi="http://www.w3.org/2001/XMLSchema-instance" xsi:schemaLocation="http://www.topografix.com/GPX/1/1 http://www.topografix.com/GPX/1/1/gpx.xsd" version="1.1" creator="VisuGPX - https://www.visugpx.com">
  <metadata>
    <name>2ème tracé du mardi 13 octobre </name>
    <desc><![CDATA[2ème tracé du mardi 13 octobre]]></desc>
  </metadata>
  <trk>
    <name><![CDATA[2ème tracé du mardi 13 octobre _1]]></name>
    <trkseg>
      <trkpt lat="49.61121" lon="1.70762">
        <ele>218.6</ele>
        <time>2015-10-13T11:43:10Z</time>
      </trkpt>
      <trkpt lat="49.61121" lon="1.70762">
        <ele>264</ele>
        <time>2015-10-13T11:43:42Z</time>
      </trkpt>
      <trkpt lat="49.611" lon="1.70735">
        <ele>261</ele>
        <time>2015-10-13T11:46:13Z</time>
      </trkpt>
      <trkpt lat="49.61104" lon="1.70705">
        <ele>263</ele>
        <time>2015-10-13T11:46:32Z</time>
      </trkpt>
      <trkpt lat="49.61117" lon="1.70686">
        <ele>260</ele>
        <time>2015-10-13T11:46:47Z</time>
      </trkpt>
      <trkpt lat="49.61134" lon="1.7068">
        <ele>264</ele>
        <time>2015-10-13T11:47:00Z</time>
      </trkpt>
      <trkpt lat="49.61148" lon="1.70667">
        <ele>261</ele>
        <time>2015-10-13T11:47:17Z</time>
      </trkpt>
      <trkpt lat="49.61167" lon="1.70654">
        <ele>262</ele>
        <time>2015-10-13T11:47:32Z</time>
      </trkpt>
      <trkpt lat="49.61182" lon="1.70642">
        <ele>263</ele>
        <time>2015-10-13T11:48:00Z</time>
      </trkpt>
      <trkpt lat="49.61193" lon="1.70633">
        <ele>263</ele>
        <time>2015-10-13T11:48:11Z</time>
      </trkpt>
      <trkpt lat="49.61212" lon="1.7062">
        <ele>267</ele>
        <time>2015-10-13T11:48:29Z</time>
      </trkpt>
      <trkpt lat="49.61212" lon="1.7062">
        <ele>267</ele>
        <time>2015-10-13T11:48:36Z</time>
      </trkpt>
      <trkpt lat="49.61212" lon="1.7062">
        <ele>267</ele>
        <time>2015-10-13T11:48:38Z</time>
      </trkpt>
      <trkpt lat="49.61228" lon="1.70607">
        <ele>268</ele>
        <time>2015-10-13T11:49:41Z</time>
      </trkpt>
      <trkpt lat="49.61236" lon="1.70601">
        <ele>270</ele>
        <time>2015-10-13T11:49:48Z</time>
      </trkpt>
      <trkpt lat="49.61249" lon="1.70589">
        <ele>273</ele>
        <time>2015-10-13T11:50:00Z</time>
      </trkpt>
      <trkpt lat="49.61261" lon="1.70572">
        <ele>275</ele>
        <time>2015-10-13T11:50:14Z</time>
      </trkpt>
      <trkpt lat="49.6127" lon="1.70547">
        <ele>274</ele>
        <time>2015-10-13T11:50:29Z</time>
      </trkpt>
      <trkpt lat="49.6128" lon="1.70521">
        <ele>276</ele>
        <time>2015-10-13T11:50:48Z</time>
      </trkpt>
      <trkpt lat="49.61291" lon="1.70493">
        <ele>275</ele>
        <time>2015-10-13T11:51:03Z</time>
      </trkpt>
      <trkpt lat="49.61297" lon="1.70479">
        <ele>276</ele>
        <time>2015-10-13T11:51:14Z</time>
      </trkpt>
      <trkpt lat="49.61306" lon="1.70454">
        <ele>278</ele>
        <time>2015-10-13T11:51:28Z</time>
      </trkpt>
      <trkpt lat="49.61315" lon="1.70429">
        <ele>280</ele>
        <time>2015-10-13T11:51:42Z</time>
      </trkpt>
      <trkpt lat="49.61324" lon="1.70405">
        <ele>279</ele>
        <time>2015-10-13T11:52:00Z</time>
      </trkpt>
      <trkpt lat="49.61331" lon="1.70379">
        <ele>274</ele>
        <time>2015-10-13T11:52:18Z</time>
      </trkpt>
      <trkpt lat="49.61342" lon="1.70302">
        <ele>267</ele>
        <time>2015-10-13T11:53:00Z</time>
      </trkpt>
      <trkpt lat="49.61342" lon="1.70275">
        <ele>267</ele>
        <time>2015-10-13T11:53:15Z</time>
      </trkpt>
      <trkpt lat="49.61343" lon="1.70243">
        <ele>269</ele>
        <time>2015-10-13T11:53:33Z</time>
      </trkpt>
      <trkpt lat="49.61345" lon="1.70218">
        <ele>270</ele>
        <time>2015-10-13T11:53:46Z</time>
      </trkpt>
      <trkpt lat="49.61347" lon="1.70205">
        <ele>271</ele>
        <time>2015-10-13T11:53:55Z</time>
      </trkpt>
      <trkpt lat="49.61349" lon="1.70185">
        <ele>270</ele>
        <time>2015-10-13T11:54:07Z</time>
      </trkpt>
      <trkpt lat="49.61353" lon="1.70153">
        <ele>270</ele>
        <time>2015-10-13T11:54:24Z</time>
      </trkpt>
      <trkpt lat="49.61356" lon="1.70137">
        <ele>271</ele>
        <time>2015-10-13T11:54:32Z</time>
      </trkpt>
      <trkpt lat="49.6136" lon="1.70112">
        <ele>271</ele>
        <time>2015-10-13T11:54:48Z</time>
      </trkpt>
      <trkpt lat="49.61363" lon="1.70089">
        <ele>271</ele>
        <time>2015-10-13T11:55:00Z</time>
      </trkpt>
      <trkpt lat="49.61366" lon="1.70064">
        <ele>272</ele>
        <time>2015-10-13T11:55:14Z</time>
      </trkpt>
      <trkpt lat="49.61375" lon="1.70023">
        <ele>274</ele>
        <time>2015-10-13T11:55:38Z</time>
      </trkpt>
      <trkpt lat="49.61379" lon="1.69985">
        <ele>273</ele>
        <time>2015-10-13T11:56:01Z</time>
      </trkpt>
      <trkpt lat="49.61383" lon="1.69956">
        <ele>274</ele>
        <time>2015-10-13T11:56:18Z</time>
      </trkpt>
      <trkpt lat="49.61386" lon="1.69937">
        <ele>273</ele>
        <time>2015-10-13T11:56:31Z</time>
      </trkpt>
      <trkpt lat="49.61395" lon="1.69889">
        <ele>270</ele>
        <time>2015-10-13T11:57:06Z</time>
      </trkpt>
      <trkpt lat="49.61402" lon="1.6985">
        <ele>270</ele>
        <time>2015-10-13T11:57:31Z</time>
      </trkpt>
      <trkpt lat="49.61409" lon="1.69805">
        <ele>268</ele>
        <time>2015-10-13T11:58:00Z</time>
      </trkpt>
      <trkpt lat="49.61415" lon="1.69774">
        <ele>269</ele>
        <time>2015-10-13T11:58:18Z</time>
      </trkpt>
      <trkpt lat="49.61443" lon="1.69722">
        <ele>273</ele>
        <time>2015-10-13T11:58:56Z</time>
      </trkpt>
      <trkpt lat="49.61461" lon="1.69707">
        <ele>279</ele>
        <time>2015-10-13T11:59:13Z</time>
      </trkpt>
      <trkpt lat="49.61472" lon="1.69694">
        <ele>279</ele>
        <time>2015-10-13T11:59:27Z</time>
      </trkpt>
      <trkpt lat="49.61481" lon="1.69686">
        <ele>280</ele>
        <time>2015-10-13T11:59:42Z</time>
      </trkpt>
      <trkpt lat="49.61493" lon="1.69672">
        <ele>283</ele>
        <time>2015-10-13T11:59:50Z</time>
      </trkpt>
      <trkpt lat="49.61508" lon="1.69664">
        <ele>285</ele>
        <time>2015-10-13T12:00:11Z</time>
      </trkpt>
      <trkpt lat="49.61529" lon="1.69637">
        <ele>285</ele>
        <time>2015-10-13T12:00:31Z</time>
      </trkpt>
      <trkpt lat="49.61541" lon="1.69619">
        <ele>284</ele>
        <time>2015-10-13T12:00:46Z</time>
      </trkpt>
      <trkpt lat="49.61541" lon="1.69619">
        <ele>284</ele>
        <time>2015-10-13T12:00:54Z</time>
      </trkpt>
      <trkpt lat="49.61541" lon="1.69619">
        <ele>284</ele>
        <time>2015-10-13T12:00:56Z</time>
      </trkpt>
      <trkpt lat="49.61545" lon="1.69604">
        <ele>275</ele>
        <time>2015-10-13T12:01:05Z</time>
      </trkpt>
      <trkpt lat="49.61557" lon="1.6959">
        <ele>276</ele>
        <time>2015-10-13T12:01:20Z</time>
      </trkpt>
      <trkpt lat="49.61582" lon="1.69563">
        <ele>277</ele>
        <time>2015-10-13T12:01:51Z</time>
      </trkpt>
      <trkpt lat="49.61595" lon="1.69548">
        <ele>273</ele>
        <time>2015-10-13T12:02:09Z</time>
      </trkpt>
      <trkpt lat="49.61616" lon="1.69581">
        <ele>270</ele>
        <time>2015-10-13T12:03:17Z</time>
      </trkpt>
      <trkpt lat="49.61629" lon="1.69608">
        <ele>272</ele>
        <time>2015-10-13T12:03:35Z</time>
      </trkpt>
      <trkpt lat="49.61643" lon="1.69627">
        <ele>274</ele>
        <time>2015-10-13T12:03:53Z</time>
      </trkpt>
      <trkpt lat="49.61652" lon="1.69647">
        <ele>274</ele>
        <time>2015-10-13T12:04:06Z</time>
      </trkpt>
      <trkpt lat="49.61664" lon="1.69672">
        <ele>275</ele>
        <time>2015-10-13T12:04:22Z</time>
      </trkpt>
      <trkpt lat="49.61673" lon="1.69688">
        <ele>272</ele>
        <time>2015-10-13T12:04:39Z</time>
      </trkpt>
      <trkpt lat="49.6168" lon="1.6971">
        <ele>270</ele>
        <time>2015-10-13T12:04:55Z</time>
      </trkpt>
      <trkpt lat="49.61688" lon="1.69728">
        <ele>269</ele>
        <time>2015-10-13T12:05:11Z</time>
      </trkpt>
      <trkpt lat="49.61692" lon="1.69738">
        <ele>271</ele>
        <time>2015-10-13T12:05:19Z</time>
      </trkpt>
      <trkpt lat="49.61703" lon="1.69756">
        <ele>272</ele>
        <time>2015-10-13T12:05:37Z</time>
      </trkpt>
      <trkpt lat="49.61714" lon="1.69775">
        <ele>272</ele>
        <time>2015-10-13T12:05:53Z</time>
      </trkpt>
      <trkpt lat="49.61724" lon="1.69796">
        <ele>270</ele>
        <time>2015-10-13T12:06:09Z</time>
      </trkpt>
      <trkpt lat="49.61734" lon="1.69815">
        <ele>270</ele>
        <time>2015-10-13T12:06:25Z</time>
      </trkpt>
      <trkpt lat="49.61749" lon="1.69829">
        <ele>270</ele>
        <time>2015-10-13T12:06:44Z</time>
      </trkpt>
      <trkpt lat="49.61763" lon="1.69838">
        <ele>270</ele>
        <time>2015-10-13T12:06:58Z</time>
      </trkpt>
      <trkpt lat="49.61781" lon="1.69837">
        <ele>271</ele>
        <time>2015-10-13T12:07:18Z</time>
      </trkpt>
      <trkpt lat="49.61799" lon="1.6983">
        <ele>273</ele>
        <time>2015-10-13T12:07:37Z</time>
      </trkpt>
      <trkpt lat="49.61845" lon="1.69838">
        <ele>267</ele>
        <time>2015-10-13T12:08:48Z</time>
      </trkpt>
      <trkpt lat="49.61858" lon="1.69846">
        <ele>270</ele>
        <time>2015-10-13T12:08:59Z</time>
      </trkpt>
      <trkpt lat="49.61875" lon="1.69849">
        <ele>270</ele>
        <time>2015-10-13T12:09:16Z</time>
      </trkpt>
      <trkpt lat="49.61891" lon="1.69857">
        <ele>266</ele>
        <time>2015-10-13T12:09:36Z</time>
      </trkpt>
      <trkpt lat="49.6192" lon="1.69863">
        <ele>270</ele>
        <time>2015-10-13T12:10:01Z</time>
      </trkpt>
      <trkpt lat="49.6195" lon="1.69871">
        <ele>273</ele>
        <time>2015-10-13T12:10:33Z</time>
      </trkpt>
      <trkpt lat="49.61976" lon="1.69885">
        <ele>272</ele>
        <time>2015-10-13T12:10:59Z</time>
      </trkpt>
      <trkpt lat="49.61985" lon="1.699">
        <ele>272</ele>
        <time>2015-10-13T12:11:09Z</time>
      </trkpt>
      <trkpt lat="49.61988" lon="1.69897">
        <ele>268</ele>
        <time>2015-10-13T12:11:29Z</time>
      </trkpt>
      <trkpt lat="49.62014" lon="1.69905">
        <ele>277</ele>
        <time>2015-10-13T12:12:18Z</time>
      </trkpt>
      <trkpt lat="49.62029" lon="1.69878">
        <ele>278</ele>
        <time>2015-10-13T12:12:39Z</time>
      </trkpt>
      <trkpt lat="49.62037" lon="1.69861">
        <ele>275</ele>
        <time>2015-10-13T12:12:54Z</time>
      </trkpt>
      <trkpt lat="49.62048" lon="1.6982">
        <ele>271</ele>
        <time>2015-10-13T12:13:23Z</time>
      </trkpt>
      <trkpt lat="49.62057" lon="1.69795">
        <ele>271</ele>
        <time>2015-10-13T12:13:38Z</time>
      </trkpt>
      <trkpt lat="49.62069" lon="1.69754">
        <ele>270</ele>
        <time>2015-10-13T12:14:06Z</time>
      </trkpt>
      <trkpt lat="49.62089" lon="1.69735">
        <ele>270</ele>
        <time>2015-10-13T12:14:28Z</time>
      </trkpt>
      <trkpt lat="49.62118" lon="1.69769">
        <ele>275</ele>
        <time>2015-10-13T12:14:54Z</time>
      </trkpt>
      <trkpt lat="49.62142" lon="1.69795">
        <ele>276</ele>
        <time>2015-10-13T12:15:22Z</time>
      </trkpt>
      <trkpt lat="49.62162" lon="1.69766">
        <ele>269</ele>
        <time>2015-10-13T12:16:17Z</time>
      </trkpt>
      <trkpt lat="49.6217" lon="1.69746">
        <ele>270</ele>
        <time>2015-10-13T12:16:31Z</time>
      </trkpt>
      <trkpt lat="49.62183" lon="1.69701">
        <ele>272</ele>
        <time>2015-10-13T12:17:00Z</time>
      </trkpt>
      <trkpt lat="49.62181" lon="1.6967">
        <ele>271</ele>
        <time>2015-10-13T12:17:18Z</time>
      </trkpt>
      <trkpt lat="49.62189" lon="1.69625">
        <ele>272</ele>
        <time>2015-10-13T12:17:40Z</time>
      </trkpt>
      <trkpt lat="49.62194" lon="1.69606">
        <ele>271</ele>
        <time>2015-10-13T12:17:53Z</time>
      </trkpt>
      <trkpt lat="49.62204" lon="1.69582">
        <ele>270</ele>
        <time>2015-10-13T12:18:09Z</time>
      </trkpt>
      <trkpt lat="49.62213" lon="1.69566">
        <ele>271</ele>
        <time>2015-10-13T12:18:21Z</time>
      </trkpt>
      <trkpt lat="49.62226" lon="1.69538">
        <ele>271</ele>
        <time>2015-10-13T12:18:38Z</time>
      </trkpt>
      <trkpt lat="49.62236" lon="1.69513">
        <ele>273</ele>
        <time>2015-10-13T12:18:53Z</time>
      </trkpt>
      <trkpt lat="49.62244" lon="1.69494">
        <ele>271</ele>
        <time>2015-10-13T12:19:07Z</time>
      </trkpt>
      <trkpt lat="49.62268" lon="1.69463">
        <ele>272</ele>
        <time>2015-10-13T12:20:05Z</time>
      </trkpt>
      <trkpt lat="49.62287" lon="1.69469">
        <ele>271</ele>
        <time>2015-10-13T12:20:25Z</time>
      </trkpt>
      <trkpt lat="49.62293" lon="1.69474">
        <ele>272</ele>
        <time>2015-10-13T12:20:30Z</time>
      </trkpt>
      <trkpt lat="49.623" lon="1.69472">
        <ele>270</ele>
        <time>2015-10-13T12:20:43Z</time>
      </trkpt>
      <trkpt lat="49.62321" lon="1.69501">
        <ele>273</ele>
        <time>2015-10-13T12:21:01Z</time>
      </trkpt>
      <trkpt lat="49.62332" lon="1.69506">
        <ele>273</ele>
        <time>2015-10-13T12:21:11Z</time>
      </trkpt>
      <trkpt lat="49.62346" lon="1.69515">
        <ele>272</ele>
        <time>2015-10-13T12:21:25Z</time>
      </trkpt>
      <trkpt lat="49.62368" lon="1.69527">
        <ele>271</ele>
        <time>2015-10-13T12:21:41Z</time>
      </trkpt>
      <trkpt lat="49.62378" lon="1.69531">
        <ele>271</ele>
        <time>2015-10-13T12:21:51Z</time>
      </trkpt>
      <trkpt lat="49.62378" lon="1.69531">
        <ele>271</ele>
        <time>2015-10-13T12:21:58Z</time>
      </trkpt>
      <trkpt lat="49.62378" lon="1.69531">
        <ele>271</ele>
        <time>2015-10-13T12:21:59Z</time>
      </trkpt>
      <trkpt lat="49.62392" lon="1.69519">
        <ele>270</ele>
        <time>2015-10-13T12:22:32Z</time>
      </trkpt>
      <trkpt lat="49.62393" lon="1.69498">
        <ele>266</ele>
        <time>2015-10-13T12:22:48Z</time>
      </trkpt>
      <trkpt lat="49.62393" lon="1.69475">
        <ele>266</ele>
        <time>2015-10-13T12:23:10Z</time>
      </trkpt>
      <trkpt lat="49.62399" lon="1.69429">
        <ele>271</ele>
        <time>2015-10-13T12:23:30Z</time>
      </trkpt>
      <trkpt lat="49.62403" lon="1.69404">
        <ele>275</ele>
        <time>2015-10-13T12:23:44Z</time>
      </trkpt>
      <trkpt lat="49.62401" lon="1.69389">
        <ele>268</ele>
        <time>2015-10-13T12:23:59Z</time>
      </trkpt>
      <trkpt lat="49.624" lon="1.69359">
        <ele>266</ele>
        <time>2015-10-13T12:24:13Z</time>
      </trkpt>
      <trkpt lat="49.62406" lon="1.69306">
        <ele>269</ele>
        <time>2015-10-13T12:24:30Z</time>
      </trkpt>
      <trkpt lat="49.62403" lon="1.69297">
        <ele>270</ele>
        <time>2015-10-13T12:24:36Z</time>
      </trkpt>
      <trkpt lat="49.62392" lon="1.69258">
        <ele>268</ele>
        <time>2015-10-13T12:24:55Z</time>
      </trkpt>
      <trkpt lat="49.62387" lon="1.69247">
        <ele>266</ele>
        <time>2015-10-13T12:25:05Z</time>
      </trkpt>
      <trkpt lat="49.62376" lon="1.69212">
        <ele>265</ele>
        <time>2015-10-13T12:25:22Z</time>
      </trkpt>
      <trkpt lat="49.62365" lon="1.6919">
        <ele>263</ele>
        <time>2015-10-13T12:25:39Z</time>
      </trkpt>
      <trkpt lat="49.62356" lon="1.69148">
        <ele>262</ele>
        <time>2015-10-13T12:26:02Z</time>
      </trkpt>
      <trkpt lat="49.62355" lon="1.6914">
        <ele>265</ele>
        <time>2015-10-13T12:26:05Z</time>
      </trkpt>
      <trkpt lat="49.62353" lon="1.69112">
        <ele>264</ele>
        <time>2015-10-13T12:26:29Z</time>
      </trkpt>
      <trkpt lat="49.6235" lon="1.69076">
        <ele>264</ele>
        <time>2015-10-13T12:26:46Z</time>
      </trkpt>
      <trkpt lat="49.62348" lon="1.69046">
        <ele>262</ele>
        <time>2015-10-13T12:27:01Z</time>
      </trkpt>
      <trkpt lat="49.62346" lon="1.69011">
        <ele>261</ele>
        <time>2015-10-13T12:27:20Z</time>
      </trkpt>
      <trkpt lat="49.62343" lon="1.68992">
        <ele>258</ele>
        <time>2015-10-13T12:27:32Z</time>
      </trkpt>
      <trkpt lat="49.62343" lon="1.68942">
        <ele>259</ele>
        <time>2015-10-13T12:27:57Z</time>
      </trkpt>
      <trkpt lat="49.62341" lon="1.68898">
        <ele>255</ele>
        <time>2015-10-13T12:28:26Z</time>
      </trkpt>
      <trkpt lat="49.62343" lon="1.68859">
        <ele>260</ele>
        <time>2015-10-13T12:28:39Z</time>
      </trkpt>
      <trkpt lat="49.62338" lon="1.68848">
        <ele>253</ele>
        <time>2015-10-13T12:28:49Z</time>
      </trkpt>
      <trkpt lat="49.6233" lon="1.68779">
        <ele>250</ele>
        <time>2015-10-13T12:29:26Z</time>
      </trkpt>
      <trkpt lat="49.62327" lon="1.68741">
        <ele>257</ele>
        <time>2015-10-13T12:29:45Z</time>
      </trkpt>
      <trkpt lat="49.6232" lon="1.68682">
        <ele>250</ele>
        <time>2015-10-13T12:30:20Z</time>
      </trkpt>
      <trkpt lat="49.62321" lon="1.68654">
        <ele>245</ele>
        <time>2015-10-13T12:30:34Z</time>
      </trkpt>
      <trkpt lat="49.6232" lon="1.6863">
        <ele>248</ele>
        <time>2015-10-13T12:31:00Z</time>
      </trkpt>
      <trkpt lat="49.62315" lon="1.68546">
        <ele>242</ele>
        <time>2015-10-13T12:31:24Z</time>
      </trkpt>
      <trkpt lat="49.62318" lon="1.68532">
        <ele>241</ele>
        <time>2015-10-13T12:31:38Z</time>
      </trkpt>
      <trkpt lat="49.62315" lon="1.68506">
        <ele>238</ele>
        <time>2015-10-13T12:31:53Z</time>
      </trkpt>
      <trkpt lat="49.62308" lon="1.68488">
        <ele>236</ele>
        <time>2015-10-13T12:32:03Z</time>
      </trkpt>
      <trkpt lat="49.62302" lon="1.68449">
        <ele>239</ele>
        <time>2015-10-13T12:32:16Z</time>
      </trkpt>
      <trkpt lat="49.62296" lon="1.68432">
        <ele>241</ele>
        <time>2015-10-13T12:32:23Z</time>
      </trkpt>
      <trkpt lat="49.62296" lon="1.68405">
        <ele>236</ele>
        <time>2015-10-13T12:32:39Z</time>
      </trkpt>
      <trkpt lat="49.62284" lon="1.68367">
        <ele>234</ele>
        <time>2015-10-13T12:32:56Z</time>
      </trkpt>
      <trkpt lat="49.62281" lon="1.68346">
        <ele>232</ele>
        <time>2015-10-13T12:33:09Z</time>
      </trkpt>
      <trkpt lat="49.62274" lon="1.68324">
        <ele>233</ele>
        <time>2015-10-13T12:33:24Z</time>
      </trkpt>
      <trkpt lat="49.62272" lon="1.68318">
        <ele>236</ele>
        <time>2015-10-13T12:33:29Z</time>
      </trkpt>
      <trkpt lat="49.62269" lon="1.6831">
        <ele>235</ele>
        <time>2015-10-13T12:33:41Z</time>
      </trkpt>
      <trkpt lat="49.62262" lon="1.68294">
        <ele>237</ele>
        <time>2015-10-13T12:33:54Z</time>
      </trkpt>
      <trkpt lat="49.62262" lon="1.68294">
        <ele>237</ele>
        <time>2015-10-13T12:34:01Z</time>
      </trkpt>
      <trkpt lat="49.62262" lon="1.68294">
        <ele>237</ele>
        <time>2015-10-13T12:34:02Z</time>
      </trkpt>
      <trkpt lat="49.62255" lon="1.68272">
        <ele>236</ele>
        <time>2015-10-13T12:34:13Z</time>
      </trkpt>
      <trkpt lat="49.62245" lon="1.6824">
        <ele>234</ele>
        <time>2015-10-13T12:34:30Z</time>
      </trkpt>
      <trkpt lat="49.62233" lon="1.68213">
        <ele>236</ele>
        <time>2015-10-13T12:34:49Z</time>
      </trkpt>
      <trkpt lat="49.62219" lon="1.68193">
        <ele>232</ele>
        <time>2015-10-13T12:35:03Z</time>
      </trkpt>
      <trkpt lat="49.622" lon="1.68169">
        <ele>226</ele>
        <time>2015-10-13T12:35:18Z</time>
      </trkpt>
      <trkpt lat="49.62193" lon="1.68162">
        <ele>227</ele>
        <time>2015-10-13T12:35:28Z</time>
      </trkpt>
      <trkpt lat="49.62177" lon="1.68137">
        <ele>224</ele>
        <time>2015-10-13T12:35:44Z</time>
      </trkpt>
      <trkpt lat="49.62164" lon="1.68115">
        <ele>231</ele>
        <time>2015-10-13T12:35:57Z</time>
      </trkpt>
      <trkpt lat="49.62164" lon="1.68115">
        <ele>231</ele>
        <time>2015-10-13T12:36:03Z</time>
      </trkpt>
      <trkpt lat="49.62158" lon="1.68106">
        <ele>232</ele>
        <time>2015-10-13T12:36:12Z</time>
      </trkpt>
      <trkpt lat="49.62139" lon="1.68084">
        <ele>223</ele>
        <time>2015-10-13T12:36:26Z</time>
      </trkpt>
      <trkpt lat="49.62125" lon="1.68062">
        <ele>225</ele>
        <time>2015-10-13T12:36:46Z</time>
      </trkpt>
      <trkpt lat="49.62106" lon="1.68045">
        <ele>227</ele>
        <time>2015-10-13T12:36:53Z</time>
      </trkpt>
      <trkpt lat="49.621" lon="1.68042">
        <ele>220</ele>
        <time>2015-10-13T12:37:03Z</time>
      </trkpt>
      <trkpt lat="49.62085" lon="1.68024">
        <ele>225</ele>
        <time>2015-10-13T12:37:19Z</time>
      </trkpt>
      <trkpt lat="49.62071" lon="1.67985">
        <ele>222</ele>
        <time>2015-10-13T12:37:33Z</time>
      </trkpt>
      <trkpt lat="49.62061" lon="1.67967">
        <ele>223</ele>
        <time>2015-10-13T12:37:43Z</time>
      </trkpt>
      <trkpt lat="49.62047" lon="1.67954">
        <ele>227</ele>
        <time>2015-10-13T12:38:01Z</time>
      </trkpt>
      <trkpt lat="49.62036" lon="1.67925">
        <ele>229</ele>
        <time>2015-10-13T12:38:23Z</time>
      </trkpt>
      <trkpt lat="49.62022" lon="1.67903">
        <ele>229</ele>
        <time>2015-10-13T12:38:38Z</time>
      </trkpt>
      <trkpt lat="49.62009" lon="1.67879">
        <ele>228</ele>
        <time>2015-10-13T12:38:54Z</time>
      </trkpt>
      <trkpt lat="49.61995" lon="1.67854">
        <ele>230</ele>
        <time>2015-10-13T12:39:13Z</time>
      </trkpt>
      <trkpt lat="49.61985" lon="1.67828">
        <ele>232</ele>
        <time>2015-10-13T12:39:30Z</time>
      </trkpt>
      <trkpt lat="49.61979" lon="1.67815">
        <ele>228</ele>
        <time>2015-10-13T12:39:40Z</time>
      </trkpt>
      <trkpt lat="49.6196" lon="1.67783">
        <ele>224</ele>
        <time>2015-10-13T12:40:00Z</time>
      </trkpt>
      <trkpt lat="49.61949" lon="1.67771">
        <ele>228</ele>
        <time>2015-10-13T12:40:12Z</time>
      </trkpt>
      <trkpt lat="49.61945" lon="1.67767">
        <ele>227</ele>
        <time>2015-10-13T12:40:16Z</time>
      </trkpt>
      <trkpt lat="49.61945" lon="1.67767">
        <ele>228</ele>
        <time>2015-10-13T12:40:23Z</time>
      </trkpt>
      <trkpt lat="49.61947" lon="1.67743">
        <ele>230</ele>
        <time>2015-10-13T12:41:03Z</time>
      </trkpt>
      <trkpt lat="49.61948" lon="1.67735">
        <ele>231</ele>
        <time>2015-10-13T12:41:09Z</time>
      </trkpt>
      <trkpt lat="49.61955" lon="1.67724">
        <ele>234</ele>
        <time>2015-10-13T12:41:23Z</time>
      </trkpt>
      <trkpt lat="49.61958" lon="1.67694">
        <ele>232</ele>
        <time>2015-10-13T12:41:40Z</time>
      </trkpt>
      <trkpt lat="49.61963" lon="1.67675">
        <ele>233</ele>
        <time>2015-10-13T12:41:43Z</time>
      </trkpt>
      <trkpt lat="49.61965" lon="1.67674">
        <ele>233</ele>
        <time>2015-10-13T12:41:52Z</time>
      </trkpt>
      <trkpt lat="49.61945" lon="1.67654">
        <ele>236</ele>
        <time>2015-10-13T12:53:26Z</time>
      </trkpt>
      <trkpt lat="49.61945" lon="1.67654">
        <ele>236</ele>
        <time>2015-10-13T12:53:31Z</time>
      </trkpt>
      <trkpt lat="49.61945" lon="1.67654">
        <ele>236</ele>
        <time>2015-10-13T12:53:32Z</time>
      </trkpt>
      <trkpt lat="49.6196" lon="1.67639">
        <ele>237</ele>
        <time>2015-10-13T12:54:09Z</time>
      </trkpt>
      <trkpt lat="49.61969" lon="1.67612">
        <ele>239</ele>
        <time>2015-10-13T12:54:32Z</time>
      </trkpt>
      <trkpt lat="49.61982" lon="1.67593">
        <ele>243</ele>
        <time>2015-10-13T12:54:42Z</time>
      </trkpt>
      <trkpt lat="49.61995" lon="1.67583">
        <ele>244</ele>
        <time>2015-10-13T12:54:52Z</time>
      </trkpt>
      <trkpt lat="49.62008" lon="1.67578">
        <ele>246</ele>
        <time>2015-10-13T12:55:06Z</time>
      </trkpt>
      <trkpt lat="49.62024" lon="1.67578">
        <ele>247</ele>
        <time>2015-10-13T12:55:21Z</time>
      </trkpt>
      <trkpt lat="49.62044" lon="1.67583">
        <ele>247</ele>
        <time>2015-10-13T12:55:39Z</time>
      </trkpt>
      <trkpt lat="49.62062" lon="1.67586">
        <ele>247</ele>
        <time>2015-10-13T12:55:55Z</time>
      </trkpt>
      <trkpt lat="49.62079" lon="1.67579">
        <ele>249</ele>
        <time>2015-10-13T12:56:11Z</time>
      </trkpt>
      <trkpt lat="49.62095" lon="1.6756">
        <ele>250</ele>
        <time>2015-10-13T12:56:28Z</time>
      </trkpt>
      <trkpt lat="49.62109" lon="1.67535">
        <ele>249</ele>
        <time>2015-10-13T12:56:45Z</time>
      </trkpt>
      <trkpt lat="49.6211" lon="1.67519">
        <ele>248</ele>
        <time>2015-10-13T12:56:55Z</time>
      </trkpt>
      <trkpt lat="49.62123" lon="1.6749">
        <ele>254</ele>
        <time>2015-10-13T12:57:15Z</time>
      </trkpt>
      <trkpt lat="49.62137" lon="1.67464">
        <ele>250</ele>
        <time>2015-10-13T12:57:30Z</time>
      </trkpt>
      <trkpt lat="49.62146" lon="1.67447">
        <ele>250</ele>
        <time>2015-10-13T12:57:43Z</time>
      </trkpt>
      <trkpt lat="49.62153" lon="1.67429">
        <ele>248</ele>
        <time>2015-10-13T12:57:55Z</time>
      </trkpt>
      <trkpt lat="49.6217" lon="1.67407">
        <ele>246</ele>
        <time>2015-10-13T12:58:09Z</time>
      </trkpt>
      <trkpt lat="49.62184" lon="1.67388">
        <ele>243</ele>
        <time>2015-10-13T12:58:26Z</time>
      </trkpt>
      <trkpt lat="49.62209" lon="1.67405">
        <ele>261</ele>
        <time>2015-10-13T12:59:28Z</time>
      </trkpt>
      <trkpt lat="49.62187" lon="1.67369">
        <ele>252</ele>
        <time>2015-10-13T13:00:05Z</time>
      </trkpt>
      <trkpt lat="49.622" lon="1.67346">
        <ele>255</ele>
        <time>2015-10-13T13:00:24Z</time>
      </trkpt>
      <trkpt lat="49.62211" lon="1.67332">
        <ele>256</ele>
        <time>2015-10-13T13:00:40Z</time>
      </trkpt>
      <trkpt lat="49.62226" lon="1.67308">
        <ele>259</ele>
        <time>2015-10-13T13:00:56Z</time>
      </trkpt>
      <trkpt lat="49.62238" lon="1.67288">
        <ele>259</ele>
        <time>2015-10-13T13:01:12Z</time>
      </trkpt>
      <trkpt lat="49.62252" lon="1.67281">
        <ele>259</ele>
        <time>2015-10-13T13:01:22Z</time>
      </trkpt>
      <trkpt lat="49.62259" lon="1.67273">
        <ele>258</ele>
        <time>2015-10-13T13:01:29Z</time>
      </trkpt>
      <trkpt lat="49.62266" lon="1.67266">
        <ele>257</ele>
        <time>2015-10-13T13:01:38Z</time>
      </trkpt>
      <trkpt lat="49.62281" lon="1.67246">
        <ele>254</ele>
        <time>2015-10-13T13:01:56Z</time>
      </trkpt>
      <trkpt lat="49.62291" lon="1.67227">
        <ele>252</ele>
        <time>2015-10-13T13:02:10Z</time>
      </trkpt>
      <trkpt lat="49.62303" lon="1.67213">
        <ele>256</ele>
        <time>2015-10-13T13:02:22Z</time>
      </trkpt>
      <trkpt lat="49.62338" lon="1.6717">
        <ele>259</ele>
        <time>2015-10-13T13:03:01Z</time>
      </trkpt>
      <trkpt lat="49.62367" lon="1.67137">
        <ele>260</ele>
        <time>2015-10-13T13:03:22Z</time>
      </trkpt>
      <trkpt lat="49.62382" lon="1.67119">
        <ele>257</ele>
        <time>2015-10-13T13:03:37Z</time>
      </trkpt>
      <trkpt lat="49.6239" lon="1.67106">
        <ele>257</ele>
        <time>2015-10-13T13:03:45Z</time>
      </trkpt>
      <trkpt lat="49.62404" lon="1.67093">
        <ele>262</ele>
        <time>2015-10-13T13:03:59Z</time>
      </trkpt>
      <trkpt lat="49.62424" lon="1.67083">
        <ele>264</ele>
        <time>2015-10-13T13:04:16Z</time>
      </trkpt>
      <trkpt lat="49.62446" lon="1.67072">
        <ele>265</ele>
        <time>2015-10-13T13:04:37Z</time>
      </trkpt>
      <trkpt lat="49.62476" lon="1.67058">
        <ele>266</ele>
        <time>2015-10-13T13:04:58Z</time>
      </trkpt>
      <trkpt lat="49.62497" lon="1.67046">
        <ele>266</ele>
        <time>2015-10-13T13:05:15Z</time>
      </trkpt>
      <trkpt lat="49.62519" lon="1.67033">
        <ele>268</ele>
        <time>2015-10-13T13:05:33Z</time>
      </trkpt>
      <trkpt lat="49.62529" lon="1.67028">
        <ele>267</ele>
        <time>2015-10-13T13:05:41Z</time>
      </trkpt>
      <trkpt lat="49.62544" lon="1.67021">
        <ele>268</ele>
        <time>2015-10-13T13:05:54Z</time>
      </trkpt>
      <trkpt lat="49.62555" lon="1.67014">
        <ele>268</ele>
        <time>2015-10-13T13:06:04Z</time>
      </trkpt>
      <trkpt lat="49.62566" lon="1.67008">
        <ele>269</ele>
        <time>2015-10-13T13:06:15Z</time>
      </trkpt>
      <trkpt lat="49.62577" lon="1.67001">
        <ele>271</ele>
        <time>2015-10-13T13:06:22Z</time>
      </trkpt>
      <trkpt lat="49.62588" lon="1.66998">
        <ele>272</ele>
        <time>2015-10-13T13:06:29Z</time>
      </trkpt>
      <trkpt lat="49.62621" lon="1.66979">
        <ele>268</ele>
        <time>2015-10-13T13:06:54Z</time>
      </trkpt>
      <trkpt lat="49.62635" lon="1.66963">
        <ele>269</ele>
        <time>2015-10-13T13:07:08Z</time>
      </trkpt>
      <trkpt lat="49.62641" lon="1.66952">
        <ele>266</ele>
        <time>2015-10-13T13:07:16Z</time>
      </trkpt>
      <trkpt lat="49.62656" lon="1.66934">
        <ele>266</ele>
        <time>2015-10-13T13:07:29Z</time>
      </trkpt>
      <trkpt lat="49.62666" lon="1.66926">
        <ele>270</ele>
        <time>2015-10-13T13:07:39Z</time>
      </trkpt>
      <trkpt lat="49.62693" lon="1.66904">
        <ele>268</ele>
        <time>2015-10-13T13:08:02Z</time>
      </trkpt>
      <trkpt lat="49.62729" lon="1.66881">
        <ele>272</ele>
        <time>2015-10-13T13:08:30Z</time>
      </trkpt>
      <trkpt lat="49.62734" lon="1.66879">
        <ele>272</ele>
        <time>2015-10-13T13:08:33Z</time>
      </trkpt>
      <trkpt lat="49.62738" lon="1.66874">
        <ele>273</ele>
        <time>2015-10-13T13:08:45Z</time>
      </trkpt>
      <trkpt lat="49.62756" lon="1.66863">
        <ele>275</ele>
        <time>2015-10-13T13:08:55Z</time>
      </trkpt>
      <trkpt lat="49.6276" lon="1.66858">
        <ele>274</ele>
        <time>2015-10-13T13:08:59Z</time>
      </trkpt>
      <trkpt lat="49.62767" lon="1.66853">
        <ele>271</ele>
        <time>2015-10-13T13:09:10Z</time>
      </trkpt>
      <trkpt lat="49.62795" lon="1.66836">
        <ele>270</ele>
        <time>2015-10-13T13:09:29Z</time>
      </trkpt>
      <trkpt lat="49.6281" lon="1.66826">
        <ele>268</ele>
        <time>2015-10-13T13:09:41Z</time>
      </trkpt>
      <trkpt lat="49.62829" lon="1.66812">
        <ele>269</ele>
        <time>2015-10-13T13:09:57Z</time>
      </trkpt>
      <trkpt lat="49.6285" lon="1.66798">
        <ele>268</ele>
        <time>2015-10-13T13:10:12Z</time>
      </trkpt>
      <trkpt lat="49.62861" lon="1.66791">
        <ele>270</ele>
        <time>2015-10-13T13:10:21Z</time>
      </trkpt>
      <trkpt lat="49.62874" lon="1.6678">
        <ele>265</ele>
        <time>2015-10-13T13:10:36Z</time>
      </trkpt>
      <trkpt lat="49.62895" lon="1.66769">
        <ele>269</ele>
        <time>2015-10-13T13:10:52Z</time>
      </trkpt>
      <trkpt lat="49.62909" lon="1.6676">
        <ele>269</ele>
        <time>2015-10-13T13:11:02Z</time>
      </trkpt>
      <trkpt lat="49.62917" lon="1.66752">
        <ele>262</ele>
        <time>2015-10-13T13:11:13Z</time>
      </trkpt>
      <trkpt lat="49.62936" lon="1.66739">
        <ele>267</ele>
        <time>2015-10-13T13:11:28Z</time>
      </trkpt>
      <trkpt lat="49.62953" lon="1.66728">
        <ele>268</ele>
        <time>2015-10-13T13:11:41Z</time>
      </trkpt>
      <trkpt lat="49.62961" lon="1.66725">
        <ele>270</ele>
        <time>2015-10-13T13:11:47Z</time>
      </trkpt>
      <trkpt lat="49.62974" lon="1.66714">
        <ele>270</ele>
        <time>2015-10-13T13:12:00Z</time>
      </trkpt>
      <trkpt lat="49.6299" lon="1.66697">
        <ele>264</ele>
        <time>2015-10-13T13:12:19Z</time>
      </trkpt>
      <trkpt lat="49.63014" lon="1.6668">
        <ele>269</ele>
        <time>2015-10-13T13:12:37Z</time>
      </trkpt>
      <trkpt lat="49.63032" lon="1.66671">
        <ele>272</ele>
        <time>2015-10-13T13:12:53Z</time>
      </trkpt>
      <trkpt lat="49.63056" lon="1.66658">
        <ele>273</ele>
        <time>2015-10-13T13:13:11Z</time>
      </trkpt>
      <trkpt lat="49.63077" lon="1.66651">
        <ele>275</ele>
        <time>2015-10-13T13:13:27Z</time>
      </trkpt>
      <trkpt lat="49.63083" lon="1.6664">
        <ele>276</ele>
        <time>2015-10-13T13:13:36Z</time>
      </trkpt>
      <trkpt lat="49.631" lon="1.66624">
        <ele>274</ele>
        <time>2015-10-13T13:13:51Z</time>
      </trkpt>
      <trkpt lat="49.63113" lon="1.66615">
        <ele>274</ele>
        <time>2015-10-13T13:14:03Z</time>
      </trkpt>
      <trkpt lat="49.63125" lon="1.66611">
        <ele>272</ele>
        <time>2015-10-13T13:14:13Z</time>
      </trkpt>
      <trkpt lat="49.63138" lon="1.66597">
        <ele>270</ele>
        <time>2015-10-13T13:14:24Z</time>
      </trkpt>
      <trkpt lat="49.63153" lon="1.66586">
        <ele>272</ele>
        <time>2015-10-13T13:14:37Z</time>
      </trkpt>
      <trkpt lat="49.6318" lon="1.66569">
        <ele>275</ele>
        <time>2015-10-13T13:14:58Z</time>
      </trkpt>
      <trkpt lat="49.63191" lon="1.66556">
        <ele>274</ele>
        <time>2015-10-13T13:15:11Z</time>
      </trkpt>
      <trkpt lat="49.63209" lon="1.6655">
        <ele>279</ele>
        <time>2015-10-13T13:15:22Z</time>
      </trkpt>
      <trkpt lat="49.63223" lon="1.66538">
        <ele>281</ele>
        <time>2015-10-13T13:15:34Z</time>
      </trkpt>
      <trkpt lat="49.63246" lon="1.66527">
        <ele>283</ele>
        <time>2015-10-13T13:15:47Z</time>
      </trkpt>
      <trkpt lat="49.63256" lon="1.66523">
        <ele>284</ele>
        <time>2015-10-13T13:15:54Z</time>
      </trkpt>
      <trkpt lat="49.63259" lon="1.66514">
        <ele>275</ele>
        <time>2015-10-13T13:16:05Z</time>
      </trkpt>
      <trkpt lat="49.63279" lon="1.66501">
        <ele>275</ele>
        <time>2015-10-13T13:16:23Z</time>
      </trkpt>
      <trkpt lat="49.63302" lon="1.66488">
        <ele>275</ele>
        <time>2015-10-13T13:16:38Z</time>
      </trkpt>
      <trkpt lat="49.63316" lon="1.66477">
        <ele>273</ele>
        <time>2015-10-13T13:16:51Z</time>
      </trkpt>
      <trkpt lat="49.63331" lon="1.6647">
        <ele>273</ele>
        <time>2015-10-13T13:17:04Z</time>
      </trkpt>
      <trkpt lat="49.63346" lon="1.66463">
        <ele>273</ele>
        <time>2015-10-13T13:17:14Z</time>
      </trkpt>
      <trkpt lat="49.63361" lon="1.66454">
        <ele>269</ele>
        <time>2015-10-13T13:17:25Z</time>
      </trkpt>
      <trkpt lat="49.63371" lon="1.66447">
        <ele>266</ele>
        <time>2015-10-13T13:17:35Z</time>
      </trkpt>
      <trkpt lat="49.63385" lon="1.66442">
        <ele>262</ele>
        <time>2015-10-13T13:17:47Z</time>
      </trkpt>
      <trkpt lat="49.63406" lon="1.66428">
        <ele>266</ele>
        <time>2015-10-13T13:18:04Z</time>
      </trkpt>
      <trkpt lat="49.63426" lon="1.66418">
        <ele>269</ele>
        <time>2015-10-13T13:18:19Z</time>
      </trkpt>
      <trkpt lat="49.63442" lon="1.66408">
        <ele>269</ele>
        <time>2015-10-13T13:18:33Z</time>
      </trkpt>
      <trkpt lat="49.63467" lon="1.66394">
        <ele>267</ele>
        <time>2015-10-13T13:18:55Z</time>
      </trkpt>
      <trkpt lat="49.63485" lon="1.66384">
        <ele>273</ele>
        <time>2015-10-13T13:19:09Z</time>
      </trkpt>
      <trkpt lat="49.63504" lon="1.66376">
        <ele>272</ele>
        <time>2015-10-13T13:19:23Z</time>
      </trkpt>
      <trkpt lat="49.63516" lon="1.66371">
        <ele>273</ele>
        <time>2015-10-13T13:19:33Z</time>
      </trkpt>
      <trkpt lat="49.63528" lon="1.66365">
        <ele>272</ele>
        <time>2015-10-13T13:19:42Z</time>
      </trkpt>
      <trkpt lat="49.63537" lon="1.66356">
        <ele>274</ele>
        <time>2015-10-13T13:19:50Z</time>
      </trkpt>
      <trkpt lat="49.63551" lon="1.6635">
        <ele>270</ele>
        <time>2015-10-13T13:20:03Z</time>
      </trkpt>
      <trkpt lat="49.63566" lon="1.66343">
        <ele>268</ele>
        <time>2015-10-13T13:20:15Z</time>
      </trkpt>
      <trkpt lat="49.63578" lon="1.66336">
        <ele>267</ele>
        <time>2015-10-13T13:20:26Z</time>
      </trkpt>
      <trkpt lat="49.6359" lon="1.66327">
        <ele>267</ele>
        <time>2015-10-13T13:20:40Z</time>
      </trkpt>
      <trkpt lat="49.63607" lon="1.66318">
        <ele>269</ele>
        <time>2015-10-13T13:20:56Z</time>
      </trkpt>
      <trkpt lat="49.63619" lon="1.6631">
        <ele>270</ele>
        <time>2015-10-13T13:21:10Z</time>
      </trkpt>
      <trkpt lat="49.63632" lon="1.66296">
        <ele>271</ele>
        <time>2015-10-13T13:21:25Z</time>
      </trkpt>
      <trkpt lat="49.6365" lon="1.66279">
        <ele>276</ele>
        <time>2015-10-13T13:21:42Z</time>
      </trkpt>
      <trkpt lat="49.63665" lon="1.66265">
        <ele>278</ele>
        <time>2015-10-13T13:21:56Z</time>
      </trkpt>
      <trkpt lat="49.63675" lon="1.66249">
        <ele>275</ele>
        <time>2015-10-13T13:22:10Z</time>
      </trkpt>
      <trkpt lat="49.63678" lon="1.66244">
        <ele>273</ele>
        <time>2015-10-13T13:22:16Z</time>
      </trkpt>
      <trkpt lat="49.63681" lon="1.66246">
        <ele>270</ele>
        <time>2015-10-13T13:22:25Z</time>
      </trkpt>
      <trkpt lat="49.63697" lon="1.66252">
        <ele>271</ele>
        <time>2015-10-13T13:24:53Z</time>
      </trkpt>
      <trkpt lat="49.63713" lon="1.66255">
        <ele>271</ele>
        <time>2015-10-13T13:25:06Z</time>
      </trkpt>
      <trkpt lat="49.63734" lon="1.66269">
        <ele>271</ele>
        <time>2015-10-13T13:25:24Z</time>
      </trkpt>
      <trkpt lat="49.63752" lon="1.66276">
        <ele>272</ele>
        <time>2015-10-13T13:25:40Z</time>
      </trkpt>
      <trkpt lat="49.63775" lon="1.66294">
        <ele>276</ele>
        <time>2015-10-13T13:26:00Z</time>
      </trkpt>
      <trkpt lat="49.63795" lon="1.66305">
        <ele>272</ele>
        <time>2015-10-13T13:26:16Z</time>
      </trkpt>
      <trkpt lat="49.63808" lon="1.66314">
        <ele>275</ele>
        <time>2015-10-13T13:26:26Z</time>
      </trkpt>
      <trkpt lat="49.63816" lon="1.66317">
        <ele>275</ele>
        <time>2015-10-13T13:26:34Z</time>
      </trkpt>
      <trkpt lat="49.6383" lon="1.66325">
        <ele>275</ele>
        <time>2015-10-13T13:26:46Z</time>
      </trkpt>
      <trkpt lat="49.63849" lon="1.66336">
        <ele>278</ele>
        <time>2015-10-13T13:27:02Z</time>
      </trkpt>
      <trkpt lat="49.6386" lon="1.66352">
        <ele>279</ele>
        <time>2015-10-13T13:27:13Z</time>
      </trkpt>
      <trkpt lat="49.63878" lon="1.66364">
        <ele>275</ele>
        <time>2015-10-13T13:27:30Z</time>
      </trkpt>
      <trkpt lat="49.63887" lon="1.66376">
        <ele>271</ele>
        <time>2015-10-13T13:27:39Z</time>
      </trkpt>
      <trkpt lat="49.63904" lon="1.66396">
        <ele>276</ele>
        <time>2015-10-13T13:27:55Z</time>
      </trkpt>
      <trkpt lat="49.63915" lon="1.66411">
        <ele>277</ele>
        <time>2015-10-13T13:28:07Z</time>
      </trkpt>
      <trkpt lat="49.63926" lon="1.66436">
        <ele>276</ele>
        <time>2015-10-13T13:28:22Z</time>
      </trkpt>
      <trkpt lat="49.63941" lon="1.66429">
        <ele>275</ele>
        <time>2015-10-13T13:28:36Z</time>
      </trkpt>
      <trkpt lat="49.63948" lon="1.66404">
        <ele>276</ele>
        <time>2015-10-13T13:28:51Z</time>
      </trkpt>
      <trkpt lat="49.63954" lon="1.66387">
        <ele>277</ele>
        <time>2015-10-13T13:29:02Z</time>
      </trkpt>
      <trkpt lat="49.63964" lon="1.66369">
        <ele>277</ele>
        <time>2015-10-13T13:29:15Z</time>
      </trkpt>
      <trkpt lat="49.63973" lon="1.66348">
        <ele>278</ele>
        <time>2015-10-13T13:29:30Z</time>
      </trkpt>
      <trkpt lat="49.63979" lon="1.66328">
        <ele>278</ele>
        <time>2015-10-13T13:29:40Z</time>
      </trkpt>
      <trkpt lat="49.63988" lon="1.66306">
        <ele>274</ele>
        <time>2015-10-13T13:29:55Z</time>
      </trkpt>
      <trkpt lat="49.63999" lon="1.66277">
        <ele>274</ele>
        <time>2015-10-13T13:30:14Z</time>
      </trkpt>
      <trkpt lat="49.64008" lon="1.66257">
        <ele>276</ele>
        <time>2015-10-13T13:30:27Z</time>
      </trkpt>
      <trkpt lat="49.64017" lon="1.66237">
        <ele>274</ele>
        <time>2015-10-13T13:30:42Z</time>
      </trkpt>
      <trkpt lat="49.64023" lon="1.66216">
        <ele>277</ele>
        <time>2015-10-13T13:30:51Z</time>
      </trkpt>
      <trkpt lat="49.64027" lon="1.66195">
        <ele>274</ele>
        <time>2015-10-13T13:31:04Z</time>
      </trkpt>
      <trkpt lat="49.64038" lon="1.66169">
        <ele>273</ele>
        <time>2015-10-13T13:31:24Z</time>
      </trkpt>
      <trkpt lat="49.64043" lon="1.66158">
        <ele>273</ele>
        <time>2015-10-13T13:31:31Z</time>
      </trkpt>
      <trkpt lat="49.64051" lon="1.66137">
        <ele>274</ele>
        <time>2015-10-13T13:31:44Z</time>
      </trkpt>
      <trkpt lat="49.64055" lon="1.66121">
        <ele>273</ele>
        <time>2015-10-13T13:31:53Z</time>
      </trkpt>
      <trkpt lat="49.64063" lon="1.66103">
        <ele>272</ele>
        <time>2015-10-13T13:32:06Z</time>
      </trkpt>
      <trkpt lat="49.64073" lon="1.66088">
        <ele>271</ele>
        <time>2015-10-13T13:32:20Z</time>
      </trkpt>
      <trkpt lat="49.64089" lon="1.66065">
        <ele>275</ele>
        <time>2015-10-13T13:32:36Z</time>
      </trkpt>
      <trkpt lat="49.64092" lon="1.66041">
        <ele>273</ele>
        <time>2015-10-13T13:32:53Z</time>
      </trkpt>
      <trkpt lat="49.64074" lon="1.66016">
        <ele>274</ele>
        <time>2015-10-13T13:33:11Z</time>
      </trkpt>
      <trkpt lat="49.64064" lon="1.66004">
        <ele>275</ele>
        <time>2015-10-13T13:33:22Z</time>
      </trkpt>
      <trkpt lat="49.64049" lon="1.65987">
        <ele>273</ele>
        <time>2015-10-13T13:33:37Z</time>
      </trkpt>
      <trkpt lat="49.64043" lon="1.65971">
        <ele>270</ele>
        <time>2015-10-13T13:33:48Z</time>
      </trkpt>
      <trkpt lat="49.64034" lon="1.65951">
        <ele>270</ele>
        <time>2015-10-13T13:34:03Z</time>
      </trkpt>
      <trkpt lat="49.64029" lon="1.65925">
        <ele>271</ele>
        <time>2015-10-13T13:34:17Z</time>
      </trkpt>
      <trkpt lat="49.64022" lon="1.65901">
        <ele>270</ele>
        <time>2015-10-13T13:34:34Z</time>
      </trkpt>
      <trkpt lat="49.64016" lon="1.65873">
        <ele>268</ele>
        <time>2015-10-13T13:34:52Z</time>
      </trkpt>
      <trkpt lat="49.64011" lon="1.6585">
        <ele>267</ele>
        <time>2015-10-13T13:35:06Z</time>
      </trkpt>
      <trkpt lat="49.64003" lon="1.6583">
        <ele>265</ele>
        <time>2015-10-13T13:35:21Z</time>
      </trkpt>
      <trkpt lat="49.64005" lon="1.65807">
        <ele>268</ele>
        <time>2015-10-13T13:35:43Z</time>
      </trkpt>
      <trkpt lat="49.64024" lon="1.65775">
        <ele>269</ele>
        <time>2015-10-13T13:37:42Z</time>
      </trkpt>
      <trkpt lat="49.64032" lon="1.65762">
        <ele>269</ele>
        <time>2015-10-13T13:37:50Z</time>
      </trkpt>
      <trkpt lat="49.64042" lon="1.65746">
        <ele>272</ele>
        <time>2015-10-13T13:37:59Z</time>
      </trkpt>
      <trkpt lat="49.64058" lon="1.65729">
        <ele>269</ele>
        <time>2015-10-13T13:38:17Z</time>
      </trkpt>
      <trkpt lat="49.64068" lon="1.65712">
        <ele>269</ele>
        <time>2015-10-13T13:38:29Z</time>
      </trkpt>
      <trkpt lat="49.64078" lon="1.65693">
        <ele>267</ele>
        <time>2015-10-13T13:38:42Z</time>
      </trkpt>
      <trkpt lat="49.64088" lon="1.65683">
        <ele>267</ele>
        <time>2015-10-13T13:38:54Z</time>
      </trkpt>
      <trkpt lat="49.64101" lon="1.65671">
        <ele>271</ele>
        <time>2015-10-13T13:39:02Z</time>
      </trkpt>
      <trkpt lat="49.64106" lon="1.65663">
        <ele>270</ele>
        <time>2015-10-13T13:39:08Z</time>
      </trkpt>
      <trkpt lat="49.64112" lon="1.65653">
        <ele>266</ele>
        <time>2015-10-13T13:39:19Z</time>
      </trkpt>
      <trkpt lat="49.6412" lon="1.65642">
        <ele>268</ele>
        <time>2015-10-13T13:39:26Z</time>
      </trkpt>
      <trkpt lat="49.64127" lon="1.65631">
        <ele>266</ele>
        <time>2015-10-13T13:39:38Z</time>
      </trkpt>
      <trkpt lat="49.64136" lon="1.65614">
        <ele>266</ele>
        <time>2015-10-13T13:39:49Z</time>
      </trkpt>
      <trkpt lat="49.64144" lon="1.65594">
        <ele>261</ele>
        <time>2015-10-13T13:40:04Z</time>
      </trkpt>
      <trkpt lat="49.64157" lon="1.65574">
        <ele>257</ele>
        <time>2015-10-13T13:40:23Z</time>
      </trkpt>
      <trkpt lat="49.64169" lon="1.65558">
        <ele>260</ele>
        <time>2015-10-13T13:40:37Z</time>
      </trkpt>
      <trkpt lat="49.64188" lon="1.65538">
        <ele>261</ele>
        <time>2015-10-13T13:40:54Z</time>
      </trkpt>
      <trkpt lat="49.64204" lon="1.6552">
        <ele>261</ele>
        <time>2015-10-13T13:41:08Z</time>
      </trkpt>
      <trkpt lat="49.64212" lon="1.65506">
        <ele>261</ele>
        <time>2015-10-13T13:41:20Z</time>
      </trkpt>
      <trkpt lat="49.64222" lon="1.65492">
        <ele>261</ele>
        <time>2015-10-13T13:41:32Z</time>
      </trkpt>
      <trkpt lat="49.64236" lon="1.65466">
        <ele>265</ele>
        <time>2015-10-13T13:41:48Z</time>
      </trkpt>
      <trkpt lat="49.64236" lon="1.65466">
        <ele>265</ele>
        <time>2015-10-13T13:41:54Z</time>
      </trkpt>
      <trkpt lat="49.64236" lon="1.65466">
        <ele>265</ele>
        <time>2015-10-13T13:41:55Z</time>
      </trkpt>
      <trkpt lat="49.64251" lon="1.65446">
        <ele>267</ele>
        <time>2015-10-13T13:42:04Z</time>
      </trkpt>
      <trkpt lat="49.64261" lon="1.65427">
        <ele>269</ele>
        <time>2015-10-13T13:42:16Z</time>
      </trkpt>
      <trkpt lat="49.6427" lon="1.65411">
        <ele>268</ele>
        <time>2015-10-13T13:42:28Z</time>
      </trkpt>
      <trkpt lat="49.64276" lon="1.65397">
        <ele>268</ele>
        <time>2015-10-13T13:42:38Z</time>
      </trkpt>
      <trkpt lat="49.64282" lon="1.65376">
        <ele>269</ele>
        <time>2015-10-13T13:42:52Z</time>
      </trkpt>
      <trkpt lat="49.64293" lon="1.65348">
        <ele>267</ele>
        <time>2015-10-13T13:43:09Z</time>
      </trkpt>
      <trkpt lat="49.643" lon="1.65325">
        <ele>270</ele>
        <time>2015-10-13T13:43:21Z</time>
      </trkpt>
      <trkpt lat="49.64303" lon="1.6529">
        <ele>259</ele>
        <time>2015-10-13T13:43:47Z</time>
      </trkpt>
      <trkpt lat="49.64306" lon="1.6526">
        <ele>264</ele>
        <time>2015-10-13T13:43:58Z</time>
      </trkpt>
      <trkpt lat="49.64307" lon="1.65248">
        <ele>265</ele>
        <time>2015-10-13T13:44:04Z</time>
      </trkpt>
      <trkpt lat="49.64311" lon="1.65175">
        <ele>272</ele>
        <time>2015-10-13T13:44:38Z</time>
      </trkpt>
      <trkpt lat="49.64312" lon="1.65145">
        <ele>269</ele>
        <time>2015-10-13T13:44:54Z</time>
      </trkpt>
      <trkpt lat="49.6431" lon="1.65126">
        <ele>268</ele>
        <time>2015-10-13T13:45:04Z</time>
      </trkpt>
      <trkpt lat="49.64314" lon="1.65085">
        <ele>269</ele>
        <time>2015-10-13T13:45:26Z</time>
      </trkpt>
      <trkpt lat="49.64318" lon="1.65048">
        <ele>272</ele>
        <time>2015-10-13T13:45:43Z</time>
      </trkpt>
      <trkpt lat="49.64321" lon="1.65029">
        <ele>277</ele>
        <time>2015-10-13T13:45:51Z</time>
      </trkpt>
      <trkpt lat="49.64325" lon="1.65013">
        <ele>279</ele>
        <time>2015-10-13T13:46:00Z</time>
      </trkpt>
      <trkpt lat="49.64328" lon="1.6498">
        <ele>275</ele>
        <time>2015-10-13T13:46:19Z</time>
      </trkpt>
      <trkpt lat="49.6433" lon="1.64958">
        <ele>273</ele>
        <time>2015-10-13T13:46:31Z</time>
      </trkpt>
      <trkpt lat="49.64337" lon="1.64929">
        <ele>274</ele>
        <time>2015-10-13T13:46:46Z</time>
      </trkpt>
      <trkpt lat="49.64339" lon="1.64896">
        <ele>278</ele>
        <time>2015-10-13T13:47:00Z</time>
      </trkpt>
      <trkpt lat="49.64341" lon="1.6489">
        <ele>280</ele>
        <time>2015-10-13T13:47:03Z</time>
      </trkpt>
      <trkpt lat="49.64345" lon="1.6487">
        <ele>279</ele>
        <time>2015-10-13T13:47:14Z</time>
      </trkpt>
      <trkpt lat="49.64348" lon="1.64854">
        <ele>280</ele>
        <time>2015-10-13T13:47:24Z</time>
      </trkpt>
      <trkpt lat="49.64352" lon="1.64828">
        <ele>281</ele>
        <time>2015-10-13T13:47:37Z</time>
      </trkpt>
      <trkpt lat="49.64353" lon="1.64818">
        <ele>281</ele>
        <time>2015-10-13T13:47:42Z</time>
      </trkpt>
      <trkpt lat="49.64357" lon="1.64809">
        <ele>273</ele>
        <time>2015-10-13T13:47:58Z</time>
      </trkpt>
      <trkpt lat="49.64369" lon="1.64766">
        <ele>269</ele>
        <time>2015-10-13T13:49:31Z</time>
      </trkpt>
      <trkpt lat="49.64381" lon="1.6474">
        <ele>275</ele>
        <time>2015-10-13T13:49:47Z</time>
      </trkpt>
      <trkpt lat="49.64394" lon="1.64706">
        <ele>274</ele>
        <time>2015-10-13T13:50:07Z</time>
      </trkpt>
      <trkpt lat="49.64405" lon="1.64684">
        <ele>269</ele>
        <time>2015-10-13T13:50:22Z</time>
      </trkpt>
      <trkpt lat="49.6442" lon="1.64662">
        <ele>272</ele>
        <time>2015-10-13T13:50:36Z</time>
      </trkpt>
      <trkpt lat="49.6442" lon="1.64662">
        <ele>272</ele>
        <time>2015-10-13T13:50:41Z</time>
      </trkpt>
      <trkpt lat="49.64422" lon="1.64649">
        <ele>274</ele>
        <time>2015-10-13T13:50:46Z</time>
      </trkpt>
      <trkpt lat="49.64424" lon="1.64629">
        <ele>268</ele>
        <time>2015-10-13T13:50:57Z</time>
      </trkpt>
      <trkpt lat="49.64436" lon="1.64613">
        <ele>270</ele>
        <time>2015-10-13T13:51:11Z</time>
      </trkpt>
      <trkpt lat="49.64445" lon="1.64592">
        <ele>274</ele>
        <time>2015-10-13T13:51:25Z</time>
      </trkpt>
      <trkpt lat="49.64454" lon="1.64569">
        <ele>274</ele>
        <time>2015-10-13T13:51:41Z</time>
      </trkpt>
      <trkpt lat="49.64464" lon="1.64546">
        <ele>275</ele>
        <time>2015-10-13T13:51:59Z</time>
      </trkpt>
      <trkpt lat="49.64478" lon="1.64523">
        <ele>276</ele>
        <time>2015-10-13T13:52:15Z</time>
      </trkpt>
      <trkpt lat="49.64484" lon="1.64506">
        <ele>276</ele>
        <time>2015-10-13T13:52:28Z</time>
      </trkpt>
      <trkpt lat="49.64492" lon="1.64484">
        <ele>272</ele>
        <time>2015-10-13T13:52:45Z</time>
      </trkpt>
      <trkpt lat="49.64502" lon="1.64469">
        <ele>273</ele>
        <time>2015-10-13T13:52:58Z</time>
      </trkpt>
      <trkpt lat="49.64517" lon="1.64438">
        <ele>277</ele>
        <time>2015-10-13T13:53:17Z</time>
      </trkpt>
      <trkpt lat="49.64523" lon="1.64414">
        <ele>271</ele>
        <time>2015-10-13T13:53:34Z</time>
      </trkpt>
      <trkpt lat="49.64537" lon="1.6439">
        <ele>277</ele>
        <time>2015-10-13T13:53:51Z</time>
      </trkpt>
      <trkpt lat="49.64547" lon="1.64362">
        <ele>274</ele>
        <time>2015-10-13T13:54:08Z</time>
      </trkpt>
      <trkpt lat="49.64553" lon="1.6435">
        <ele>272</ele>
        <time>2015-10-13T13:54:19Z</time>
      </trkpt>
      <trkpt lat="49.64566" lon="1.6432">
        <ele>269</ele>
        <time>2015-10-13T13:54:46Z</time>
      </trkpt>
      <trkpt lat="49.64574" lon="1.64304">
        <ele>270</ele>
        <time>2015-10-13T13:55:02Z</time>
      </trkpt>
      <trkpt lat="49.6458" lon="1.64291">
        <ele>270</ele>
        <time>2015-10-13T13:55:12Z</time>
      </trkpt>
      <trkpt lat="49.64588" lon="1.64274">
        <ele>273</ele>
        <time>2015-10-13T13:55:23Z</time>
      </trkpt>
      <trkpt lat="49.64591" lon="1.64251">
        <ele>270</ele>
        <time>2015-10-13T13:55:38Z</time>
      </trkpt>
      <trkpt lat="49.64606" lon="1.64236">
        <ele>273</ele>
        <time>2015-10-13T13:55:50Z</time>
      </trkpt>
      <trkpt lat="49.64612" lon="1.64215">
        <ele>276</ele>
        <time>2015-10-13T13:56:03Z</time>
      </trkpt>
      <trkpt lat="49.64622" lon="1.64197">
        <ele>275</ele>
        <time>2015-10-13T13:56:11Z</time>
      </trkpt>
      <trkpt lat="49.64628" lon="1.64188">
        <ele>277</ele>
        <time>2015-10-13T13:56:19Z</time>
      </trkpt>
      <trkpt lat="49.64637" lon="1.64172">
        <ele>279</ele>
        <time>2015-10-13T13:56:33Z</time>
      </trkpt>
      <trkpt lat="49.64641" lon="1.64147">
        <ele>275</ele>
        <time>2015-10-13T13:56:47Z</time>
      </trkpt>
      <trkpt lat="49.64641" lon="1.64147">
        <ele>275</ele>
        <time>2015-10-13T13:56:53Z</time>
      </trkpt>
      <trkpt lat="49.64647" lon="1.64131">
        <ele>271</ele>
        <time>2015-10-13T13:56:57Z</time>
      </trkpt>
      <trkpt lat="49.6465" lon="1.64115">
        <ele>274</ele>
        <time>2015-10-13T13:57:03Z</time>
      </trkpt>
      <trkpt lat="49.6465" lon="1.64115">
        <ele>274</ele>
        <time>2015-10-13T13:57:11Z</time>
      </trkpt>
      <trkpt lat="49.64658" lon="1.64106">
        <ele>273</ele>
        <time>2015-10-13T13:57:18Z</time>
      </trkpt>
      <trkpt lat="49.64671" lon="1.64072">
        <ele>273</ele>
        <time>2015-10-13T13:57:35Z</time>
      </trkpt>
      <trkpt lat="49.64687" lon="1.64035">
        <ele>275</ele>
        <time>2015-10-13T13:57:54Z</time>
      </trkpt>
      <trkpt lat="49.6469" lon="1.6403">
        <ele>274</ele>
        <time>2015-10-13T13:57:57Z</time>
      </trkpt>
      <trkpt lat="49.64697" lon="1.64019">
        <ele>273</ele>
        <time>2015-10-13T13:58:11Z</time>
      </trkpt>
      <trkpt lat="49.64709" lon="1.63991">
        <ele>274</ele>
        <time>2015-10-13T13:58:33Z</time>
      </trkpt>
      <trkpt lat="49.6472" lon="1.63966">
        <ele>278</ele>
        <time>2015-10-13T13:58:49Z</time>
      </trkpt>
      <trkpt lat="49.64729" lon="1.63942">
        <ele>274</ele>
        <time>2015-10-13T13:58:59Z</time>
      </trkpt>
      <trkpt lat="49.64732" lon="1.63928">
        <ele>275</ele>
        <time>2015-10-13T13:59:13Z</time>
      </trkpt>
      <trkpt lat="49.64745" lon="1.63909">
        <ele>278</ele>
        <time>2015-10-13T13:59:28Z</time>
      </trkpt>
      <trkpt lat="49.64752" lon="1.63895">
        <ele>281</ele>
        <time>2015-10-13T13:59:40Z</time>
      </trkpt>
      <trkpt lat="49.64761" lon="1.63877">
        <ele>279</ele>
        <time>2015-10-13T13:59:54Z</time>
      </trkpt>
      <trkpt lat="49.64771" lon="1.63854">
        <ele>279</ele>
        <time>2015-10-13T14:00:08Z</time>
      </trkpt>
      <trkpt lat="49.6478" lon="1.63833">
        <ele>277</ele>
        <time>2015-10-13T14:00:24Z</time>
      </trkpt>
      <trkpt lat="49.64794" lon="1.63813">
        <ele>274</ele>
        <time>2015-10-13T14:00:42Z</time>
      </trkpt>
      <trkpt lat="49.64803" lon="1.63794">
        <ele>277</ele>
        <time>2015-10-13T14:00:56Z</time>
      </trkpt>
      <trkpt lat="49.64808" lon="1.6378">
        <ele>278</ele>
        <time>2015-10-13T14:01:04Z</time>
      </trkpt>
      <trkpt lat="49.64803" lon="1.63753">
        <ele>278</ele>
        <time>2015-10-13T14:01:22Z</time>
      </trkpt>
      <trkpt lat="49.64801" lon="1.63741">
        <ele>278</ele>
        <time>2015-10-13T14:01:29Z</time>
      </trkpt>
      <trkpt lat="49.648" lon="1.63715">
        <ele>278</ele>
        <time>2015-10-13T14:01:46Z</time>
      </trkpt>
      <trkpt lat="49.64803" lon="1.63701">
        <ele>279</ele>
        <time>2015-10-13T14:01:57Z</time>
      </trkpt>
      <trkpt lat="49.64803" lon="1.63701">
        <ele>279</ele>
        <time>2015-10-13T14:02:05Z</time>
      </trkpt>
      <trkpt lat="49.64819" lon="1.6366">
        <ele>277</ele>
        <time>2015-10-13T14:02:40Z</time>
      </trkpt>
      <trkpt lat="49.64828" lon="1.63637">
        <ele>278</ele>
        <time>2015-10-13T14:02:54Z</time>
      </trkpt>
      <trkpt lat="49.64839" lon="1.63615">
        <ele>279</ele>
        <time>2015-10-13T14:03:08Z</time>
      </trkpt>
      <trkpt lat="49.64848" lon="1.63593">
        <ele>285</ele>
        <time>2015-10-13T14:03:23Z</time>
      </trkpt>
      <trkpt lat="49.64855" lon="1.63574">
        <ele>281</ele>
        <time>2015-10-13T14:03:35Z</time>
      </trkpt>
      <trkpt lat="49.64866" lon="1.63546">
        <ele>282</ele>
        <time>2015-10-13T14:03:52Z</time>
      </trkpt>
      <trkpt lat="49.64877" lon="1.63525">
        <ele>282</ele>
        <time>2015-10-13T14:04:06Z</time>
      </trkpt>
      <trkpt lat="49.64886" lon="1.6351">
        <ele>283</ele>
        <time>2015-10-13T14:04:17Z</time>
      </trkpt>
      <trkpt lat="49.64897" lon="1.6349">
        <ele>280</ele>
        <time>2015-10-13T14:04:32Z</time>
      </trkpt>
      <trkpt lat="49.64911" lon="1.63464">
        <ele>280</ele>
        <time>2015-10-13T14:04:49Z</time>
      </trkpt>
      <trkpt lat="49.6493" lon="1.6344">
        <ele>278</ele>
        <time>2015-10-13T14:05:06Z</time>
      </trkpt>
      <trkpt lat="49.64934" lon="1.63426">
        <ele>279</ele>
        <time>2015-10-13T14:05:17Z</time>
      </trkpt>
      <trkpt lat="49.64946" lon="1.63408">
        <ele>277</ele>
        <time>2015-10-13T14:05:29Z</time>
      </trkpt>
      <trkpt lat="49.6496" lon="1.63384">
        <ele>273</ele>
        <time>2015-10-13T14:05:45Z</time>
      </trkpt>
      <trkpt lat="49.64977" lon="1.63361">
        <ele>275</ele>
        <time>2015-10-13T14:05:56Z</time>
      </trkpt>
      <trkpt lat="49.6498" lon="1.6335">
        <ele>277</ele>
        <time>2015-10-13T14:06:07Z</time>
      </trkpt>
      <trkpt lat="49.64992" lon="1.63333">
        <ele>276</ele>
        <time>2015-10-13T14:06:20Z</time>
      </trkpt>
      <trkpt lat="49.64992" lon="1.63323">
        <ele>275</ele>
        <time>2015-10-13T14:06:26Z</time>
      </trkpt>
      <trkpt lat="49.64995" lon="1.63313">
        <ele>268</ele>
        <time>2015-10-13T14:06:39Z</time>
      </trkpt>
      <trkpt lat="49.65005" lon="1.63286">
        <ele>268</ele>
        <time>2015-10-13T14:06:56Z</time>
      </trkpt>
      <trkpt lat="49.65003" lon="1.63279">
        <ele>268</ele>
        <time>2015-10-13T14:06:59Z</time>
      </trkpt>
      <trkpt lat="49.65002" lon="1.63265">
        <ele>272</ele>
        <time>2015-10-13T14:07:12Z</time>
      </trkpt>
      <trkpt lat="49.64999" lon="1.63244">
        <ele>265</ele>
        <time>2015-10-13T14:07:27Z</time>
      </trkpt>
      <trkpt lat="49.6499" lon="1.63223">
        <ele>263</ele>
        <time>2015-10-13T14:07:38Z</time>
      </trkpt>
      <trkpt lat="49.64987" lon="1.6321">
        <ele>266</ele>
        <time>2015-10-13T14:07:45Z</time>
      </trkpt>
      <trkpt lat="49.64982" lon="1.63189">
        <ele>265</ele>
        <time>2015-10-13T14:07:57Z</time>
      </trkpt>
      <trkpt lat="49.64977" lon="1.63161">
        <ele>267</ele>
        <time>2015-10-13T14:08:09Z</time>
      </trkpt>
      <trkpt lat="49.64973" lon="1.63145">
        <ele>268</ele>
        <time>2015-10-13T14:08:18Z</time>
      </trkpt>
      <trkpt lat="49.64962" lon="1.63128">
        <ele>270</ele>
        <time>2015-10-13T14:08:27Z</time>
      </trkpt>
      <trkpt lat="49.64967" lon="1.63106">
        <ele>269</ele>
        <time>2015-10-13T14:08:38Z</time>
      </trkpt>
      <trkpt lat="49.64959" lon="1.63097">
        <ele>267</ele>
        <time>2015-10-13T14:08:46Z</time>
      </trkpt>
      <trkpt lat="49.64948" lon="1.63072">
        <ele>268</ele>
        <time>2015-10-13T14:09:00Z</time>
      </trkpt>
      <trkpt lat="49.64947" lon="1.63044">
        <ele>266</ele>
        <time>2015-10-13T14:09:11Z</time>
      </trkpt>
      <trkpt lat="49.64948" lon="1.63028">
        <ele>266</ele>
        <time>2015-10-13T14:09:20Z</time>
      </trkpt>
      <trkpt lat="49.64948" lon="1.63028">
        <ele>266</ele>
        <time>2015-10-13T14:09:27Z</time>
      </trkpt>
      <trkpt lat="49.64948" lon="1.63028">
        <ele>266</ele>
        <time>2015-10-13T14:09:28Z</time>
      </trkpt>
      <trkpt lat="49.64948" lon="1.62999">
        <ele>268</ele>
        <time>2015-10-13T14:09:44Z</time>
      </trkpt>
      <trkpt lat="49.6495" lon="1.62984">
        <ele>270</ele>
        <time>2015-10-13T14:09:53Z</time>
      </trkpt>
      <trkpt lat="49.64952" lon="1.62979">
        <ele>269</ele>
        <time>2015-10-13T14:10:02Z</time>
      </trkpt>
      <trkpt lat="49.64954" lon="1.62947">
        <ele>268</ele>
        <time>2015-10-13T14:10:19Z</time>
      </trkpt>
      <trkpt lat="49.64954" lon="1.62934">
        <ele>267</ele>
        <time>2015-10-13T14:10:25Z</time>
      </trkpt>
      <trkpt lat="49.64955" lon="1.62888">
        <ele>273</ele>
        <time>2015-10-13T14:10:38Z</time>
      </trkpt>
      <trkpt lat="49.64952" lon="1.62872">
        <ele>273</ele>
        <time>2015-10-13T14:10:46Z</time>
      </trkpt>
      <trkpt lat="49.64954" lon="1.62826">
        <ele>276</ele>
        <time>2015-10-13T14:11:06Z</time>
      </trkpt>
      <trkpt lat="49.64952" lon="1.62799">
        <ele>277</ele>
        <time>2015-10-13T14:11:18Z</time>
      </trkpt>
      <trkpt lat="49.64952" lon="1.62778">
        <ele>282</ele>
        <time>2015-10-13T14:11:27Z</time>
      </trkpt>
      <trkpt lat="49.64942" lon="1.62754">
        <ele>279</ele>
        <time>2015-10-13T14:11:39Z</time>
      </trkpt>
      <trkpt lat="49.64929" lon="1.62732">
        <ele>281</ele>
        <time>2015-10-13T14:11:56Z</time>
      </trkpt>
      <trkpt lat="49.64924" lon="1.62708">
        <ele>276</ele>
        <time>2015-10-13T14:12:12Z</time>
      </trkpt>
      <trkpt lat="49.64913" lon="1.62691">
        <ele>274</ele>
        <time>2015-10-13T14:12:23Z</time>
      </trkpt>
      <trkpt lat="49.64905" lon="1.62668">
        <ele>283</ele>
        <time>2015-10-13T14:12:33Z</time>
      </trkpt>
      <trkpt lat="49.64898" lon="1.62646">
        <ele>283</ele>
        <time>2015-10-13T14:12:48Z</time>
      </trkpt>
      <trkpt lat="49.64885" lon="1.62626">
        <ele>278</ele>
        <time>2015-10-13T14:13:02Z</time>
      </trkpt>
      <trkpt lat="49.64878" lon="1.62612">
        <ele>278</ele>
        <time>2015-10-13T14:13:08Z</time>
      </trkpt>
      <trkpt lat="49.64877" lon="1.62609">
        <ele>278</ele>
        <time>2015-10-13T14:13:12Z</time>
      </trkpt>
      <trkpt lat="49.64869" lon="1.62598">
        <ele>275</ele>
        <time>2015-10-13T14:13:21Z</time>
      </trkpt>
      <trkpt lat="49.64863" lon="1.62575">
        <ele>277</ele>
        <time>2015-10-13T14:13:34Z</time>
      </trkpt>
      <trkpt lat="49.64854" lon="1.62561">
        <ele>270</ele>
        <time>2015-10-13T14:13:44Z</time>
      </trkpt>
      <trkpt lat="49.64844" lon="1.62538">
        <ele>268</ele>
        <time>2015-10-13T14:14:01Z</time>
      </trkpt>
      <trkpt lat="49.64844" lon="1.6253">
        <ele>272</ele>
        <time>2015-10-13T14:14:05Z</time>
      </trkpt>
      <trkpt lat="49.64842" lon="1.62523">
        <ele>274</ele>
        <time>2015-10-13T14:14:18Z</time>
      </trkpt>
      <trkpt lat="49.64831" lon="1.62506">
        <ele>271</ele>
        <time>2015-10-13T14:14:29Z</time>
      </trkpt>
      <trkpt lat="49.64825" lon="1.62493">
        <ele>268</ele>
        <time>2015-10-13T14:14:36Z</time>
      </trkpt>
      <trkpt lat="49.64812" lon="1.62456">
        <ele>269</ele>
        <time>2015-10-13T14:14:48Z</time>
      </trkpt>
      <trkpt lat="49.64802" lon="1.6243">
        <ele>268</ele>
        <time>2015-10-13T14:15:00Z</time>
      </trkpt>
      <trkpt lat="49.64793" lon="1.62408">
        <ele>269</ele>
        <time>2015-10-13T14:15:13Z</time>
      </trkpt>
      <trkpt lat="49.64783" lon="1.62373">
        <ele>261</ele>
        <time>2015-10-13T14:15:30Z</time>
      </trkpt>
      <trkpt lat="49.64779" lon="1.6234">
        <ele>257</ele>
        <time>2015-10-13T14:15:51Z</time>
      </trkpt>
      <trkpt lat="49.64779" lon="1.62325">
        <ele>259</ele>
        <time>2015-10-13T14:16:00Z</time>
      </trkpt>
      <trkpt lat="49.64777" lon="1.62322">
        <ele>256</ele>
        <time>2015-10-13T14:16:08Z</time>
      </trkpt>
      <trkpt lat="49.64772" lon="1.62303">
        <ele>253</ele>
        <time>2015-10-13T14:16:23Z</time>
      </trkpt>
      <trkpt lat="49.64768" lon="1.62287">
        <ele>244</ele>
        <time>2015-10-13T14:16:30Z</time>
      </trkpt>
      <trkpt lat="49.64765" lon="1.62263">
        <ele>240</ele>
        <time>2015-10-13T14:16:43Z</time>
      </trkpt>
      <trkpt lat="49.64763" lon="1.62235">
        <ele>239</ele>
        <time>2015-10-13T14:16:55Z</time>
      </trkpt>
      <trkpt lat="49.64763" lon="1.62197">
        <ele>247</ele>
        <time>2015-10-13T14:17:07Z</time>
      </trkpt>
      <trkpt lat="49.64759" lon="1.62175">
        <ele>249</ele>
        <time>2015-10-13T14:17:18Z</time>
      </trkpt>
      <trkpt lat="49.64759" lon="1.62158">
        <ele>249</ele>
        <time>2015-10-13T14:17:33Z</time>
      </trkpt>
      <trkpt lat="49.64754" lon="1.62135">
        <ele>250</ele>
        <time>2015-10-13T14:17:51Z</time>
      </trkpt>
      <trkpt lat="49.64752" lon="1.62122">
        <ele>247</ele>
        <time>2015-10-13T14:17:55Z</time>
      </trkpt>
      <trkpt lat="49.64752" lon="1.62118">
        <ele>245</ele>
        <time>2015-10-13T14:18:01Z</time>
      </trkpt>
      <trkpt lat="49.64746" lon="1.62092">
        <ele>241</ele>
        <time>2015-10-13T14:18:12Z</time>
      </trkpt>
      <trkpt lat="49.64746" lon="1.62064">
        <ele>247</ele>
        <time>2015-10-13T14:18:19Z</time>
      </trkpt>
      <trkpt lat="49.64747" lon="1.62047">
        <ele>250</ele>
        <time>2015-10-13T14:18:29Z</time>
      </trkpt>
      <trkpt lat="49.6475" lon="1.62019">
        <ele>247</ele>
        <time>2015-10-13T14:18:47Z</time>
      </trkpt>
      <trkpt lat="49.64762" lon="1.62005">
        <ele>246</ele>
        <time>2015-10-13T14:19:00Z</time>
      </trkpt>
      <trkpt lat="49.64778" lon="1.62011">
        <ele>238</ele>
        <time>2015-10-13T14:19:11Z</time>
      </trkpt>
      <trkpt lat="49.64791" lon="1.62009">
        <ele>233</ele>
        <time>2015-10-13T14:19:27Z</time>
      </trkpt>
      <trkpt lat="49.64822" lon="1.62014">
        <ele>232</ele>
        <time>2015-10-13T14:21:05Z</time>
      </trkpt>
      <trkpt lat="49.64833" lon="1.62015">
        <ele>228</ele>
        <time>2015-10-13T14:21:11Z</time>
      </trkpt>
      <trkpt lat="49.64855" lon="1.6202">
        <ele>218</ele>
        <time>2015-10-13T14:21:28Z</time>
      </trkpt>
      <trkpt lat="49.64869" lon="1.6202">
        <ele>217</ele>
        <time>2015-10-13T14:21:40Z</time>
      </trkpt>
      <trkpt lat="49.64888" lon="1.62015">
        <ele>219</ele>
        <time>2015-10-13T14:21:57Z</time>
      </trkpt>
      <trkpt lat="49.64903" lon="1.62027">
        <ele>211</ele>
        <time>2015-10-13T14:22:12Z</time>
      </trkpt>
      <trkpt lat="49.6493" lon="1.62031">
        <ele>213</ele>
        <time>2015-10-13T14:22:33Z</time>
      </trkpt>
      <trkpt lat="49.6495" lon="1.62032">
        <ele>210</ele>
        <time>2015-10-13T14:22:51Z</time>
      </trkpt>
      <trkpt lat="49.64972" lon="1.62024">
        <ele>218</ele>
        <time>2015-10-13T14:23:08Z</time>
      </trkpt>
      <trkpt lat="49.64988" lon="1.62025">
        <ele>220</ele>
        <time>2015-10-13T14:23:21Z</time>
      </trkpt>
      <trkpt lat="49.64998" lon="1.62021">
        <ele>218</ele>
        <time>2015-10-13T14:23:35Z</time>
      </trkpt>
      <trkpt lat="49.65009" lon="1.6202">
        <ele>217</ele>
        <time>2015-10-13T14:23:45Z</time>
      </trkpt>
      <trkpt lat="49.65027" lon="1.62016">
        <ele>214</ele>
        <time>2015-10-13T14:24:00Z</time>
      </trkpt>
      <trkpt lat="49.65048" lon="1.6201">
        <ele>216</ele>
        <time>2015-10-13T14:24:17Z</time>
      </trkpt>
      <trkpt lat="49.65065" lon="1.61995">
        <ele>222</ele>
        <time>2015-10-13T14:24:34Z</time>
      </trkpt>
      <trkpt lat="49.65081" lon="1.61992">
        <ele>221</ele>
        <time>2015-10-13T14:24:46Z</time>
      </trkpt>
      <trkpt lat="49.65091" lon="1.61977">
        <ele>223</ele>
        <time>2015-10-13T14:24:57Z</time>
      </trkpt>
      <trkpt lat="49.65103" lon="1.61966">
        <ele>220</ele>
        <time>2015-10-13T14:25:11Z</time>
      </trkpt>
      <trkpt lat="49.65124" lon="1.61951">
        <ele>225</ele>
        <time>2015-10-13T14:25:28Z</time>
      </trkpt>
      <trkpt lat="49.65133" lon="1.61943">
        <ele>228</ele>
        <time>2015-10-13T14:25:35Z</time>
      </trkpt>
      <trkpt lat="49.6514" lon="1.61935">
        <ele>225</ele>
        <time>2015-10-13T14:25:45Z</time>
      </trkpt>
      <trkpt lat="49.65153" lon="1.61929">
        <ele>221</ele>
        <time>2015-10-13T14:26:01Z</time>
      </trkpt>
      <trkpt lat="49.65165" lon="1.61918">
        <ele>222</ele>
        <time>2015-10-13T14:26:13Z</time>
      </trkpt>
      <trkpt lat="49.6518" lon="1.61909">
        <ele>221</ele>
        <time>2015-10-13T14:26:27Z</time>
      </trkpt>
      <trkpt lat="49.65193" lon="1.61896">
        <ele>219</ele>
        <time>2015-10-13T14:26:42Z</time>
      </trkpt>
      <trkpt lat="49.65208" lon="1.61871">
        <ele>222</ele>
        <time>2015-10-13T14:26:59Z</time>
      </trkpt>
      <trkpt lat="49.65222" lon="1.6185">
        <ele>221</ele>
        <time>2015-10-13T14:27:16Z</time>
      </trkpt>
      <trkpt lat="49.65232" lon="1.61837">
        <ele>221</ele>
        <time>2015-10-13T14:27:27Z</time>
      </trkpt>
      <trkpt lat="49.65248" lon="1.6182">
        <ele>221</ele>
        <time>2015-10-13T14:27:43Z</time>
      </trkpt>
      <trkpt lat="49.65258" lon="1.61801">
        <ele>222</ele>
        <time>2015-10-13T14:27:59Z</time>
      </trkpt>
      <trkpt lat="49.6527" lon="1.61777">
        <ele>223</ele>
        <time>2015-10-13T14:28:15Z</time>
      </trkpt>
      <trkpt lat="49.65286" lon="1.61768">
        <ele>223</ele>
        <time>2015-10-13T14:28:33Z</time>
      </trkpt>
      <trkpt lat="49.65306" lon="1.61761">
        <ele>223</ele>
        <time>2015-10-13T14:28:50Z</time>
      </trkpt>
      <trkpt lat="49.65306" lon="1.61761">
        <ele>223</ele>
        <time>2015-10-13T14:28:55Z</time>
      </trkpt>
      <trkpt lat="49.65315" lon="1.61759">
        <ele>222</ele>
        <time>2015-10-13T14:29:00Z</time>
      </trkpt>
      <trkpt lat="49.6532" lon="1.61753">
        <ele>220</ele>
        <time>2015-10-13T14:29:08Z</time>
      </trkpt>
      <trkpt lat="49.6532" lon="1.61748">
        <ele>221</ele>
        <time>2015-10-13T14:29:17Z</time>
      </trkpt>
      <trkpt lat="49.6532" lon="1.61748">
        <ele>175.8</ele>
        <time>2015-10-13T14:30:08Z</time>
      </trkpt>
      <trkpt lat="49.6532" lon="1.61748">
        <ele>175.8</ele>
        <time>2015-10-13T14:30:13Z</time>
      </trkpt>
    </trkseg>
  </trk>
</gpx>